Time;durP1;ratioP1;P1;durP2;ratioP2;P2;SDS_P1;SDS_P2;PMS_P1;PMS_P2;Temp;Humidity;BMP_temperature;BMP_pressure;BME280_temperature;BME280_humidity;BME280_pressure;Samples;Min_cycle;Max_cycle;Signal;HPM_P1;HPM_P2
2023/03/29 00:01:24;;;;;;;;;;;-0.30;99.90;;;;;;5075022;28;20269;-77
2023/03/29 00:03:50;;;;;;;;;;;-0.20;99.90;;;;;;5075268;28;20003;-77
2023/03/29 00:06:21;;;;;;;;;;;-0.30;99.90;;;;;;5075206;28;19917;-77
2023/03/29 00:08:50;;;;;;;;;;;-0.20;99.90;;;;;;5075099;28;19923;-76
2023/03/29 00:11:16;;;;;;;;;;;-0.30;99.90;;;;;;5074902;28;20373;-77
2023/03/29 00:13:42;;;;;;;;;;;-0.30;99.90;;;;;;5075163;28;19983;-77
2023/03/29 00:16:08;;;;;;;;;;;-0.30;99.90;;;;;;5075196;28;19915;-77
2023/03/29 00:18:34;;;;;;;;;;;-0.30;99.90;;;;;;5075172;28;20295;-76
2023/03/29 00:21:00;;;;;;;;;;;-0.30;99.90;;;;;;5075160;28;19909;-77
2023/03/29 00:23:26;;;;;;;;;;;-0.50;99.90;;;;;;5074876;28;19920;-76
2023/03/29 00:25:52;;;;;;;;;;;-0.50;99.90;;;;;;5075058;28;20178;-76
2023/03/29 00:28:18;;;;;;;;;;;-0.40;99.90;;;;;;5075102;28;19912;-77
2023/03/29 00:30:44;;;;;;;;;;;-0.40;99.90;;;;;;5075056;28;19912;-77
2023/03/29 00:33:10;;;;;;;;;;;-0.40;99.90;;;;;;5074808;28;19923;-76
2023/03/29 00:35:37;;;;;;;;;;;-0.30;99.90;;;;;;5075015;28;19912;-76
2023/03/29 00:38:05;;;;;;;;;;;-0.10;99.90;;;;;;5074881;28;20317;-76
2023/03/29 00:40:31;;;;;;;;;;;-0.10;99.90;;;;;;5074896;28;19916;-76
2023/03/29 00:42:57;;;;;;;;;;;-0.10;99.90;;;;;;5074886;28;19923;-76
2023/03/29 00:45:25;;;;;;;;;;;-0.30;99.90;;;;;;5074768;28;19913;-76
2023/03/29 00:47:55;;;;;;;;;;;-0.40;99.90;;;;;;5075117;28;20006;-76
2023/03/29 00:50:25;;;;;;;;;;;-0.50;99.90;;;;;;5075036;28;20443;-76
2023/03/29 00:52:58;;;;;;;;;;;-0.50;99.90;;;;;;5074435;28;19917;-76
2023/03/29 00:55:26;;;;;;;;;;;-0.50;99.90;;;;;;5074799;28;19959;-76
2023/03/29 00:57:54;;;;;;;;;;;-0.60;99.90;;;;;;5074923;28;20354;-76
2023/03/29 01:00:21;;;;;;;;;;;-0.70;99.90;;;;;;5074701;28;20392;-76
2023/03/29 01:02:53;;;;;;;;;;;-0.70;99.90;;;;;;5074821;28;19912;-76
2023/03/29 01:05:23;;;;;;;;;;;-0.70;99.90;;;;;;5074332;28;19999;-75
2023/03/29 01:08:00;;;;;;;;;;;-0.50;99.90;;;;;;5074594;28;20003;-75
2023/03/29 01:10:33;;;;;;;;;;;-0.40;99.90;;;;;;5074585;28;19917;-76
2023/03/29 01:13:05;;;;;;;;;;;-0.20;99.90;;;;;;5074633;28;19927;-75
2023/03/29 01:15:32;;;;;;;;;;;-0.10;99.90;;;;;;5060654;28;19939;-75
2023/03/29 01:18:00;;;;;;;;;;;-0.20;99.90;;;;;;5060536;28;19919;-75
2023/03/29 01:20:29;;;;;;;;;;;-0.10;99.90;;;;;;5060390;28;19983;-75
2023/03/29 01:23:01;;;;;;;;;;;-0.10;99.90;;;;;;5060552;28;19920;-75
2023/03/29 01:25:40;;;;;;;;;;;-0.10;99.90;;;;;;5078578;28;20038;-75
2023/03/29 01:28:10;;;;;;;;;;;-0.10;99.90;;;;;;5078300;28;19920;-75
2023/03/29 01:30:41;;;;;;;;;;;-0.10;99.90;;;;;;5060749;28;20357;-75
2023/03/29 01:33:11;;;;;;;;;;;-0.10;99.90;;;;;;5060172;28;20023;-75
2023/03/29 01:35:47;;;;;;;;;;;-0.20;99.90;;;;;;5078570;28;19912;-75
2023/03/29 01:38:15;;;;;;;;;;;-0.20;99.90;;;;;;5078223;28;19916;-75
2023/03/29 01:40:41;;;;;;;;;;;-0.20;99.90;;;;;;5078002;28;20374;-75
2023/03/29 01:43:10;;;;;;;;;;;-0.10;99.90;;;;;;5060092;28;19919;-75
2023/03/29 01:45:36;;;;;;;;;;;-0.10;99.90;;;;;;5078354;28;19922;-75
2023/03/29 01:48:17;;;;;;;;;;;-0.10;99.90;;;;;;5078008;28;20344;-76
2023/03/29 01:50:46;;;;;;;;;;;-0.20;99.90;;;;;;5077894;28;19924;-75
2023/03/29 01:53:19;;;;;;;;;;;-0.10;99.90;;;;;;5077664;28;19963;-75
2023/03/29 01:55:48;;;;;;;;;;;0.00;99.90;;;;;;5077879;28;19913;-75
2023/03/29 01:58:15;;;;;;;;;;;0.20;99.90;;;;;;5059891;28;19917;-75
2023/03/29 02:00:42;;;;;;;;;;;0.30;99.90;;;;;;5059698;28;19920;-75
2023/03/29 02:03:09;;;;;;;;;;;0.20;99.90;;;;;;5077779;28;19920;-75
2023/03/29 02:05:36;;;;;;;;;;;0.10;99.90;;;;;;5077654;28;19912;-75
2023/03/29 02:08:04;;;;;;;;;;;0.10;99.90;;;;;;5059544;28;19917;-75
2023/03/29 02:10:31;;;;;;;;;;;0.10;99.90;;;;;;5059553;28;19979;-75
2023/03/29 02:12:57;;;;;;;;;;;0.20;99.90;;;;;;5077490;28;20290;-75
2023/03/29 02:15:24;;;;;;;;;;;0.10;99.90;;;;;;5059466;28;19995;-75
2023/03/29 02:17:50;;;;;;;;;;;0.10;99.90;;;;;;5077410;28;19919;-75
2023/03/29 02:20:22;;;;;;;;;;;0.00;99.90;;;;;;5059414;28;19913;-75
2023/03/29 02:23:07;;;;;;;;;;;-0.10;99.90;;;;;;5059453;28;19920;-76
2023/03/29 02:25:34;;;;;;;;;;;-0.10;99.90;;;;;;5058900;28;20007;-76
2023/03/29 02:28:00;;;;;;;;;;;0.00;99.90;;;;;;5059295;28;19912;-76
2023/03/29 02:30:29;;;;;;;;;;;0.10;99.90;;;;;;5059335;28;19917;-76
2023/03/29 02:33:00;;;;;;;;;;;0.10;99.90;;;;;;5059020;28;20258;-76
2023/03/29 02:35:33;;;;;;;;;;;0.10;99.90;;;;;;5059352;28;19927;-76
2023/03/29 02:38:01;;;;;;;;;;;0.10;99.90;;;;;;5077095;28;19919;-76
2023/03/29 02:40:27;;;;;;;;;;;0.20;99.90;;;;;;5077040;28;19976;-76
2023/03/29 02:42:54;;;;;;;;;;;0.30;99.90;;;;;;5059202;28;19919;-76
2023/03/29 02:45:21;;;;;;;;;;;0.30;99.90;;;;;;5076898;28;19916;-76
2023/03/29 02:47:50;;;;;;;;;;;0.10;99.90;;;;;;5059027;28;19942;-76
2023/03/29 02:50:17;;;;;;;;;;;-0.20;99.90;;;;;;5058934;28;20454;-76
2023/03/29 02:52:49;;;;;;;;;;;-0.40;99.90;;;;;;5058612;28;20341;-76
2023/03/29 02:55:16;;;;;;;;;;;-0.40;99.90;;;;;;5076764;28;19913;-76
2023/03/29 02:57:42;;;;;;;;;;;-0.50;99.90;;;;;;5058602;28;19962;-76
2023/03/29 03:00:09;;;;;;;;;;;-0.50;99.90;;;;;;5076757;28;19927;-76
2023/03/29 03:02:36;;;;;;;;;;;-0.50;99.90;;;;;;5058731;28;19912;-76
2023/03/29 03:05:05;;;;;;;;;;;-0.60;99.90;;;;;;5058480;28;19957;-76
2023/03/29 03:07:32;;;;;;;;;;;-0.60;99.90;;;;;;5058547;28;19926;-76
2023/03/29 03:09:58;;;;;;;;;;;-0.40;99.90;;;;;;5058438;28;19916;-76
2023/03/29 03:12:24;;;;;;;;;;;-0.40;99.90;;;;;;5058285;28;19970;-76
2023/03/29 03:14:50;;;;;;;;;;;-0.50;99.90;;;;;;5076305;28;19991;-76
2023/03/29 03:17:17;;;;;;;;;;;-0.60;99.90;;;;;;5076364;28;20431;-76
2023/03/29 03:19:45;;;;;;;;;;;-0.50;99.90;;;;;;5058309;28;19918;-76
2023/03/29 03:22:11;;;;;;;;;;;-0.70;99.90;;;;;;5076069;28;20010;-76
2023/03/29 03:24:37;;;;;;;;;;;-0.80;99.90;;;;;;5058242;28;19966;-76
2023/03/29 03:27:05;;;;;;;;;;;-1.00;99.90;;;;;;5058053;28;19920;-76
2023/03/29 03:29:30;;;;;;;;;;;-1.10;99.90;;;;;;5058089;28;19917;-76
2023/03/29 03:32:28;;;;;;;;;;;-1.10;99.90;;;;;;5059994;28;19916;-76
2023/03/29 03:35:15;;;;;;;;;;;-0.90;99.90;;;;;;5034353;28;19913;-76
2023/03/29 03:37:40;;;;;;;;;;;-0.80;99.90;;;;;;5075270;28;19923;-76
2023/03/29 03:40:08;;;;;;;;;;;-0.60;99.90;;;;;;5058018;28;19932;-76
2023/03/29 03:42:34;;;;;;;;;;;-0.40;99.90;;;;;;5076042;28;19912;-76
2023/03/29 03:45:00;;;;;;;;;;;-0.30;99.90;;;;;;5057727;28;19917;-76
2023/03/29 03:47:46;;;;;;;;;;;-0.40;99.90;;;;;;5057699;28;20396;-76
2023/03/29 03:50:24;;;;;;;;;;;-0.50;99.90;;;;;;5057693;28;20250;-76
2023/03/29 03:52:50;;;;;;;;;;;-0.70;99.90;;;;;;5057538;28;19924;-75
2023/03/29 03:55:16;;;;;;;;;;;-0.70;99.90;;;;;;5057530;28;19920;-76
2023/03/29 03:58:11;;;;;;;;;;;-0.70;99.90;;;;;;5063154;28;19916;-76
2023/03/29 04:00:37;;;;;;;;;;;-0.90;99.90;;;;;;5057495;28;20305;-76
2023/03/29 04:03:21;;;;;;;;;;;-0.70;99.90;;;;;;5057627;28;20031;-76
2023/03/29 04:05:47;;;;;;;;;;;-0.60;99.90;;;;;;5057237;28;19917;-75
2023/03/29 04:08:15;;;;;;;;;;;-0.50;99.90;;;;;;5057265;28;20266;-75
2023/03/29 04:11:04;;;;;;;;;;;-0.50;99.90;;;;;;5064300;28;19956;-76
2023/03/29 04:13:35;;;;;;;;;;;-0.50;99.90;;;;;;5057324;28;19927;-75
2023/03/29 04:16:23;;;;;;;;;;;-0.50;99.90;;;;;;5057253;28;19916;-76
2023/03/29 04:18:49;;;;;;;;;;;-0.50;99.90;;;;;;5057313;28;19919;-75
2023/03/29 04:21:15;;;;;;;;;;;-0.50;99.90;;;;;;5056972;28;20284;-75
2023/03/29 04:23:42;;;;;;;;;;;-0.70;99.90;;;;;;5057149;28;20358;-75
2023/03/29 04:26:08;;;;;;;;;;;-0.80;99.90;;;;;;5057073;28;19958;-75
2023/03/29 04:29:09;;;;;;;;;;;-0.90;99.90;;;;;;5062339;28;19908;-75
2023/03/29 04:31:41;;;;;;;;;;;-1.00;99.90;;;;;;5056894;28;19987;-75
2023/03/29 04:34:36;;;;;;;;;;;-1.00;99.90;;;;;;5065725;28;19912;-75
2023/03/29 04:37:09;;;;;;;;;;;-1.10;99.90;;;;;;5056900;28;20318;-75
2023/03/29 04:39:36;;;;;;;;;;;-1.10;99.90;;;;;;5056952;28;20019;-75
2023/03/29 04:42:04;;;;;;;;;;;-1.10;99.90;;;;;;5056860;28;19909;-75
2023/03/29 04:44:33;;;;;;;;;;;-0.90;99.90;;;;;;5056813;28;20003;-75
2023/03/29 04:47:02;;;;;;;;;;;-0.90;99.90;;;;;;5056566;28;20016;-75
2023/03/29 04:49:33;;;;;;;;;;;-0.80;99.90;;;;;;5074708;28;19974;-75
2023/03/29 04:51:59;;;;;;;;;;;-0.70;99.90;;;;;;5056382;28;20366;-74
2023/03/29 04:54:28;;;;;;;;;;;-0.50;99.90;;;;;;5056591;28;19912;-75
2023/03/29 04:57:20;;;;;;;;;;;-0.50;99.90;;;;;;5056732;28;19956;-75
2023/03/29 05:00:13;;;;;;;;;;;-0.50;99.90;;;;;;5056490;28;19912;-75
2023/03/29 05:02:58;;;;;;;;;;;-0.30;99.90;;;;;;5056579;28;19916;-75
2023/03/29 05:05:25;;;;;;;;;;;-0.10;99.90;;;;;;5056496;28;19956;-74
2023/03/29 05:07:53;;;;;;;;;;;-0.10;99.90;;;;;;5056486;28;19974;-75
2023/03/29 05:10:25;;;;;;;;;;;-0.20;99.90;;;;;;5056575;28;19959;-75
2023/03/29 05:12:52;;;;;;;;;;;-0.20;99.90;;;;;;5056334;28;19920;-74
2023/03/29 05:15:20;;;;;;;;;;;-0.10;99.90;;;;;;5056418;28;19961;-74
2023/03/29 05:17:48;;;;;;;;;;;0.00;99.90;;;;;;5056366;28;19935;-74
2023/03/29 05:20:16;;;;;;;;;;;0.20;99.90;;;;;;5056383;28;19912;-74
2023/03/29 05:22:44;;;;;;;;;;;0.40;99.90;;;;;;5056563;28;19916;-74
2023/03/29 05:25:19;;;;;;;;;;;0.60;99.90;;;;;;5057036;28;19919;-74
2023/03/29 05:27:45;;;;;;;;;;;0.80;99.90;;;;;;5054200;28;19917;-74
2023/03/29 05:30:14;;;;;;;;;;;1.00;99.90;;;;;;5056451;28;19912;-74
2023/03/29 05:32:55;;;;;;;;;;;1.30;99.90;;;;;;5056910;28;19922;-74
2023/03/29 05:35:25;;;;;;;;;;;1.50;99.90;;;;;;5056798;28;19917;-74
2023/03/29 05:37:52;;;;;;;;;;;1.60;99.90;;;;;;5055729;28;19920;-75
2023/03/29 05:40:18;;;;;;;;;;;1.60;99.90;;;;;;5053515;28;19916;-75
2023/03/29 05:43:02;;;;;;;;;;;1.80;99.90;;;;;;5059651;28;19919;-75
2023/03/29 05:45:28;;;;;;;;;;;1.70;99.90;;;;;;5056094;28;20003;-75
2023/03/29 05:47:55;;;;;;;;;;;1.80;99.90;;;;;;5054308;28;19912;-75
2023/03/29 05:50:22;;;;;;;;;;;1.90;99.90;;;;;;5089631;28;19908;-75
2023/03/29 05:52:48;;;;;;;;;;;1.90;99.90;;;;;;5089493;28;19962;-75
2023/03/29 05:55:14;;;;;;;;;;;1.80;99.90;;;;;;5089593;28;19913;-76
2023/03/29 05:57:40;;;;;;;;;;;1.90;99.90;;;;;;5054298;28;20364;-76
2023/03/29 06:00:22;;;;;;;;;;;1.90;99.90;;;;;;5069247;28;20289;-76
2023/03/29 06:02:54;;;;;;;;;;;1.90;99.90;;;;;;5042184;28;19920;-76
2023/03/29 06:05:21;;;;;;;;;;;2.10;99.90;;;;;;5052490;28;19912;-75
2023/03/29 06:07:59;;;;;;;;;;;2.30;99.90;;;;;;5059918;28;20014;-76
2023/03/29 06:14:29;;;;;;;;;;;2.40;99.90;;;;;;5058260;28;20006;-73
2023/03/29 06:17:06;;;;;;;;;;;2.40;99.90;;;;;;5041755;28;19919;-75
2023/03/29 06:19:32;;;;;;;;;;;2.40;99.90;;;;;;5077388;28;19916;-75
2023/03/29 06:21:57;;;;;;;;;;;2.50;99.90;;;;;;5093124;28;19913;-76
2023/03/29 06:24:26;;;;;;;;;;;2.50;99.90;;;;;;5057455;28;19921;-75
2023/03/29 06:27:00;;;;;;;;;;;2.60;99.90;;;;;;5058780;28;20348;-76
2023/03/29 06:29:26;;;;;;;;;;;2.70;99.90;;;;;;5078799;28;20369;-74
2023/03/29 06:31:53;;;;;;;;;;;2.90;99.90;;;;;;5044486;28;19912;-74
2023/03/29 06:37:55;;;;;;;;;;;3.20;99.90;;;;;;5065782;28;19956;-76
2023/03/29 06:40:32;;;;;;;;;;;3.40;99.90;;;;;;5057620;28;19970;-77
2023/03/29 06:42:59;;;;;;;;;;;3.60;99.90;;;;;;5056586;28;19916;-76
2023/03/29 06:45:45;;;;;;;;;;;3.70;99.90;;;;;;5056338;28;19912;-78
2023/03/29 06:48:25;;;;;;;;;;;4.00;99.90;;;;;;5059504;28;19912;-78
2023/03/29 06:50:53;;;;;;;;;;;4.00;99.90;;;;;;5059550;28;19958;-75
2023/03/29 06:53:22;;;;;;;;;;;4.10;99.90;;;;;;5058382;28;19923;-74
2023/03/29 06:55:55;;;;;;;;;;;4.30;99.90;;;;;;5058222;28;19999;-74
2023/03/29 06:58:53;;;;;;;;;;;4.40;99.90;;;;;;5053407;28;19917;-75
2023/03/29 07:01:33;;;;;;;;;;;4.70;99.90;;;;;;5058317;28;20000;-73
2023/03/29 07:04:08;;;;;;;;;;;5.10;99.90;;;;;;5058744;28;20322;-73
2023/03/29 07:06:50;;;;;;;;;;;5.60;99.90;;;;;;5059238;28;19917;-73
2023/03/29 07:09:15;;;;;;;;;;;6.20;99.90;;;;;;5076870;28;19965;-73
2023/03/29 07:12:22;;;;;;;;;;;6.70;99.90;;;;;;5076973;28;19920;-72
2023/03/29 07:14:48;;;;;;;;;;;7.20;99.90;;;;;;5058189;28;19954;-73
2023/03/29 07:17:15;;;;;;;;;;;7.80;99.90;;;;;;5058698;28;20354;-72
2023/03/29 07:19:41;;;;;;;;;;;8.00;99.90;;;;;;5059099;28;19918;-72
2023/03/29 07:22:26;;;;;;;;;;;8.50;99.90;;;;;;5077159;28;20008;-73
2023/03/29 07:24:58;;;;;;;;;;;8.80;99.90;;;;;;5058794;28;19917;-73
2023/03/29 07:27:25;;;;;;;;;;;8.80;99.90;;;;;;5058848;28;19919;-73
2023/03/29 07:29:53;;;;;;;;;;;8.70;99.90;;;;;;5058199;28;19912;-74
2023/03/29 07:32:19;;;;;;;;;;;8.70;99.90;;;;;;5057330;28;19916;-73
2023/03/29 07:34:54;;;;;;;;;;;8.40;99.90;;;;;;5057038;28;19912;-73
2023/03/29 07:37:27;;;;;;;;;;;8.10;99.90;;;;;;5089382;28;19913;-74
2023/03/29 07:39:55;;;;;;;;;;;8.30;99.90;;;;;;5048816;28;20373;-74
2023/03/29 07:42:57;;;;;;;;;;;8.40;99.90;;;;;;4994974;28;20009;-74
2023/03/29 07:45:27;;;;;;;;;;;8.40;99.90;;;;;;5043348;28;20257;-75
2023/03/29 07:48:13;;;;;;;;;;;8.70;99.90;;;;;;5076307;28;19927;-76
2023/03/29 07:50:51;;;;;;;;;;;8.90;99.90;;;;;;5081781;28;19920;-76
2023/03/29 07:53:21;;;;;;;;;;;8.90;99.90;;;;;;5049174;28;19924;-75
2023/03/29 07:55:49;;;;;;;;;;;9.20;99.90;;;;;;5054336;28;19912;-76
2023/03/29 07:58:41;;;;;;;;;;;9.60;99.90;;;;;;5037232;28;19960;-75
2023/03/29 08:01:07;;;;;;;;;;;10.10;99.90;;;;;;5084738;28;19986;-75
2023/03/29 08:03:59;;;;;;;;;;;10.20;99.90;;;;;;5064961;28;19909;-75
2023/03/29 08:06:44;;;;;;;;;;;10.00;99.90;;;;;;5071963;28;19958;-74
2023/03/29 08:09:13;;;;;;;;;;;10.30;99.90;;;;;;5057593;28;19920;-75
2023/03/29 08:11:45;;;;;;;;;;;11.10;99.90;;;;;;5046724;28;19966;-76
2023/03/29 08:14:24;;;;;;;;;;;11.50;99.90;;;;;;5071700;28;19912;-76
2023/03/29 08:17:03;;;;;;;;;;;11.50;99.90;;;;;;5048361;28;20388;-76
2023/03/29 08:19:33;;;;;;;;;;;11.40;99.90;;;;;;5090888;28;19916;-75
2023/03/29 08:22:04;;;;;;;;;;;12.00;99.90;;;;;;5055732;28;19919;-76
2023/03/29 08:24:55;;;;;;;;;;;12.20;99.90;;;;;;5075186;28;19999;-76
2023/03/29 08:27:25;;;;;;;;;;;12.60;99.90;;;;;;5057653;28;20416;-77
2023/03/29 08:29:54;;;;;;;;;;;13.20;99.90;;;;;;5057490;28;19918;-76
2023/03/29 08:32:20;;;;;;;;;;;13.80;99.90;;;;;;5056383;28;19917;-76
2023/03/29 08:34:46;;;;;;;;;;;13.70;99.90;;;;;;5045867;28;19920;-77
2023/03/29 08:37:36;;;;;;;;;;;13.60;99.90;;;;;;5075058;28;20011;-77
2023/03/29 08:40:05;;;;;;;;;;;13.90;99.90;;;;;;5057504;28;20011;-76
2023/03/29 08:42:51;;;;;;;;;;;13.80;99.90;;;;;;5070420;28;19939;-77
2023/03/29 08:45:51;;;;;;;;;;;13.80;99.90;;;;;;5073125;28;19913;-77
2023/03/29 08:48:21;;;;;;;;;;;13.50;99.90;;;;;;5024719;28;19940;-78
2023/03/29 08:51:00;;;;;;;;;;;14.00;99.90;;;;;;5057519;28;20437;-78
2023/03/29 08:53:32;;;;;;;;;;;14.40;99.90;;;;;;5053047;28;19925;-78
2023/03/29 08:56:11;;;;;;;;;;;14.10;99.90;;;;;;5072928;28;20440;-78
2023/03/29 08:58:44;;;;;;;;;;;14.20;99.90;;;;;;5074895;28;20003;-78
2023/03/29 09:01:11;;;;;;;;;;;14.10;99.90;;;;;;5057305;28;19920;-78
2023/03/29 09:03:56;;;;;;;;;;;14.00;99.90;;;;;;5057421;28;19908;-78
2023/03/29 09:06:42;;;;;;;;;;;14.00;99.90;;;;;;5052432;28;20369;-77
2023/03/29 09:09:21;;;;;;;;;;;14.20;99.90;;;;;;5037004;28;20366;-78
2023/03/29 09:11:49;;;;;;;;;;;14.60;99.90;;;;;;5037076;28;19913;-57
2023/03/29 09:14:27;;;;;;;;;;;14.50;99.90;;;;;;5053218;28;19943;-57
2023/03/29 09:16:57;;;;;;;;;;;14.90;99.90;;;;;;5053282;28;19912;-57
2023/03/29 09:19:32;;;;;;;;;;;14.70;99.90;;;;;;5057036;28;19920;-57
2023/03/29 09:22:12;;;;;;;;;;;15.50;99.90;;;;;;5040508;28;19920;-57
2023/03/29 09:24:45;;;;;;;;;;;15.60;99.90;;;;;;5055916;28;19912;-57
2023/03/29 09:27:37;;;;;;;;;;;15.30;99.90;;;;;;5056394;28;19919;-57
2023/03/29 09:30:25;;;;;;;;;;;15.40;99.90;;;;;;5089423;28;19958;-57
2023/03/29 09:32:57;;;;;;;;;;;15.50;99.90;;;;;;5056646;28;19917;-57
2023/03/29 09:35:37;;;;;;;;;;;14.80;99.90;;;;;;5059583;28;19921;-57
2023/03/29 09:38:04;;;;;;;;;;;15.00;99.90;;;;;;5094101;28;19919;-57
2023/03/29 09:40:34;;;;;;;;;;;15.60;99.90;;;;;;5060208;28;19931;-57
2023/03/29 09:43:12;;;;;;;;;;;15.20;99.90;;;;;;5058550;28;19916;-57
2023/03/29 09:45:39;;;;;;;;;;;15.50;99.90;;;;;;5059521;28;19912;-57
2023/03/29 09:48:10;;;;;;;;;;;15.40;99.90;;;;;;5060513;28;20281;-57
2023/03/29 09:50:37;;;;;;;;;;;14.90;99.90;;;;;;5094152;28;19999;-57
2023/03/29 09:53:07;;;;;;;;;;;15.00;99.90;;;;;;5060056;28;19964;-57
2023/03/29 09:55:38;;;;;;;;;;;14.80;99.90;;;;;;5060274;28;19958;-57
2023/03/29 09:58:16;;;;;;;;;;;15.20;99.90;;;;;;5058835;28;19923;-57
2023/03/29 10:00:47;;;;;;;;;;;15.60;99.90;;;;;;5060124;28;19927;-57
2023/03/29 10:03:18;;;;;;;;;;;16.10;99.90;;;;;;5059984;28;19916;-57
2023/03/29 10:05:53;;;;;;;;;;;15.60;99.90;;;;;;5077357;28;19924;-57
2023/03/29 10:08:30;;;;;;;;;;;16.30;99.90;;;;;;5059783;28;20395;-57
2023/03/29 10:10:58;;;;;;;;;;;16.60;99.90;;;;;;5059132;28;19919;-57
2023/03/29 10:13:29;;;;;;;;;;;16.80;99.90;;;;;;5063211;28;19980;-57
2023/03/29 10:16:08;;;;;;;;;;;16.90;99.90;;;;;;5062540;28;19913;-58
2023/03/29 10:18:41;;;;;;;;;;;17.40;99.90;;;;;;5073665;28;20292;-58
2023/03/29 10:21:16;;;;;;;;;;;17.30;99.90;;;;;;5077959;28;19913;-58
2023/03/29 10:23:42;;;;;;;;;;;17.40;99.90;;;;;;5077731;28;19916;-58
2023/03/29 10:26:27;;;;;;;;;;;18.00;99.90;;;;;;5077824;28;19926;-58
2023/03/29 10:28:55;;;;;;;;;;;17.70;99.90;;;;;;5077544;28;19916;-58
2023/03/29 10:31:22;;;;;;;;;;;17.70;99.90;;;;;;5077675;28;19966;-58
2023/03/29 10:33:52;;;;;;;;;;;17.50;99.90;;;;;;5077372;28;19917;-58
2023/03/29 10:36:25;;;;;;;;;;;17.40;99.90;;;;;;5077716;28;19913;-58
2023/03/29 10:38:55;;;;;;;;;;;16.80;99.90;;;;;;5043151;28;19921;-58
2023/03/29 10:41:22;;;;;;;;;;;17.40;99.90;;;;;;5059622;28;20003;-58
2023/03/29 10:43:50;;;;;;;;;;;17.60;99.90;;;;;;5043378;28;19966;-58
2023/03/29 10:46:18;;;;;;;;;;;17.80;99.90;;;;;;5058713;28;20018;-58
2023/03/29 10:48:45;;;;;;;;;;;18.00;99.90;;;;;;5076975;28;19939;-58
2023/03/29 10:51:12;;;;;;;;;;;18.00;99.90;;;;;;5077560;28;20015;-58
2023/03/29 10:53:38;;;;;;;;;;;18.20;99.90;;;;;;5075558;28;19921;-58
2023/03/29 10:56:23;;;;;;;;;;;18.10;99.90;;;;;;5076057;28;19920;-58
2023/03/29 10:58:52;;;;;;;;;;;17.70;99.90;;;;;;5076552;28;19917;-58
2023/03/29 11:01:25;;;;;;;;;;;17.60;99.90;;;;;;5070008;28;19923;-58
2023/03/29 11:03:59;;;;;;;;;;;17.60;99.90;;;;;;5069230;28;20390;-57
2023/03/29 11:06:51;;;;;;;;;;;17.40;99.90;;;;;;5076537;28;19912;-58
2023/03/29 11:09:17;;;;;;;;;;;17.50;99.90;;;;;;5038735;28;19974;-58
2023/03/29 11:11:52;;;;;;;;;;;17.80;99.90;;;;;;5057940;28;19913;-58
2023/03/29 11:14:27;;;;;;;;;;;18.00;99.90;;;;;;5056009;28;19935;-58
2023/03/29 11:16:56;;;;;;;;;;;17.90;99.90;;;;;;5055953;28;19920;-58
2023/03/29 11:19:22;;;;;;;;;;;17.80;99.90;;;;;;5056046;28;19913;-58
2023/03/29 11:21:48;;;;;;;;;;;17.90;99.90;;;;;;5038240;28;19919;-58
2023/03/29 11:24:26;;;;;;;;;;;18.40;99.90;;;;;;5067069;28;19916;-58
2023/03/29 11:27:01;;;;;;;;;;;18.50;99.90;;;;;;5055561;28;19913;-58
2023/03/29 11:29:32;;;;;;;;;;;17.50;99.90;;;;;;5071365;28;19982;-58
2023/03/29 11:32:12;;;;;;;;;;;16.90;99.90;;;;;;5061470;28;19942;-57
2023/03/29 11:34:56;;;;;;;;;;;16.80;99.90;;;;;;5075670;28;19982;-57
2023/03/29 11:37:42;;;;;;;;;;;17.20;99.90;;;;;;5070440;28;19917;-57
2023/03/29 11:40:27;;;;;;;;;;;16.90;99.90;;;;;;5066748;28;19913;-62
2023/03/29 11:42:57;;;;;;;;;;;17.10;99.90;;;;;;5073867;28;19939;-57
2023/03/29 11:45:35;;;;;;;;;;;16.80;99.90;;;;;;5073828;28;20377;-57
2023/03/29 11:48:03;;;;;;;;;;;16.80;99.90;;;;;;5072615;28;19913;-57
2023/03/29 11:50:41;;;;;;;;;;;16.60;99.90;;;;;;5075091;28;19912;-57
2023/03/29 11:53:10;;;;;;;;;;;16.80;99.90;;;;;;5074993;28;19927;-58
2023/03/29 11:55:38;;;;;;;;;;;16.80;99.90;;;;;;5076086;28;19927;-59
2023/03/29 11:58:07;;;;;;;;;;;16.70;99.90;;;;;;5056395;28;19913;-58
2023/03/29 12:00:56;;;;;;;;;;;16.80;99.90;;;;;;5075320;28;19982;-58
2023/03/29 12:03:43;;;;;;;;;;;16.70;99.90;;;;;;5046786;28;19919;-58
2023/03/29 12:06:21;;;;;;;;;;;16.50;99.90;;;;;;5075505;28;19912;-58
2023/03/29 12:08:53;;;;;;;;;;;16.60;99.90;;;;;;5075773;28;19952;-58
2023/03/29 12:11:26;;;;;;;;;;;16.70;99.90;;;;;;5075993;28;19948;-58
2023/03/29 12:14:09;;;;;;;;;;;17.20;99.90;;;;;;5069167;28;19924;-58
2023/03/29 12:16:47;;;;;;;;;;;16.90;99.90;;;;;;5073394;28;19919;-58
2023/03/29 12:19:18;;;;;;;;;;;16.80;99.90;;;;;;5075609;28;19954;-58
2023/03/29 12:21:45;;;;;;;;;;;17.00;99.90;;;;;;5074058;28;20373;-58
2023/03/29 12:24:14;;;;;;;;;;;17.00;99.90;;;;;;5075799;28;19912;-58
2023/03/29 12:27:00;;;;;;;;;;;16.70;99.90;;;;;;5075393;28;19912;-58
2023/03/29 12:29:26;;;;;;;;;;;16.40;99.90;;;;;;5075183;28;19912;-58
2023/03/29 12:31:56;;;;;;;;;;;16.10;99.90;;;;;;5075625;28;19916;-58
2023/03/29 12:38:02;;;;;;;;;;;16.60;99.90;;;;;;5075244;28;19931;-58
2023/03/29 12:40:56;;;;;;;;;;;17.00;99.90;;;;;;5044869;28;19995;-58
2023/03/29 12:43:59;;;;;;;;;;;17.10;99.90;;;;;;5009761;28;19912;-58
2023/03/29 12:46:34;;;;;;;;;;;17.10;99.90;;;;;;5075012;28;20277;-58
2023/03/29 12:49:06;;;;;;;;;;;17.00;99.90;;;;;;5072113;28;19912;-58
2023/03/29 12:51:33;;;;;;;;;;;17.10;99.90;;;;;;5067220;28;19916;-58
2023/03/29 12:54:13;;;;;;;;;;;17.00;99.90;;;;;;5065756;28;19920;-58
2023/03/29 12:56:52;;;;;;;;;;;17.30;99.90;;;;;;5051475;28;20020;-58
2023/03/29 12:59:25;;;;;;;;;;;17.40;99.90;;;;;;5067854;28;19938;-58
2023/03/29 13:02:10;;;;;;;;;;;17.70;99.90;;;;;;5057975;28;19913;-58
2023/03/29 13:04:45;;;;;;;;;;;17.70;99.90;;;;;;5072058;28;19995;-58
2023/03/29 13:07:27;;;;;;;;;;;17.60;99.90;;;;;;5068290;28;20003;-58
2023/03/29 13:09:54;;;;;;;;;;;17.60;99.90;;;;;;5067996;28;20012;-58
2023/03/29 13:12:36;;;;;;;;;;;17.20;99.90;;;;;;5078229;28;20594;-58
2023/03/29 13:15:04;;;;;;;;;;;17.60;99.90;;;;;;5078497;28;19920;-58
2023/03/29 13:17:45;;;;;;;;;;;17.40;99.90;;;;;;5077727;28;19912;-58
2023/03/29 13:20:30;;;;;;;;;;;17.20;99.90;;;;;;5084973;28;19976;-58
2023/03/29 13:22:56;;;;;;;;;;;17.30;99.90;;;;;;5062940;28;19913;-58
2023/03/29 13:25:22;;;;;;;;;;;17.30;99.90;;;;;;5078393;28;19923;-58
2023/03/29 13:27:54;;;;;;;;;;;17.50;99.90;;;;;;5078395;28;20377;-58
2023/03/29 13:30:22;;;;;;;;;;;17.40;99.90;;;;;;5078332;28;19913;-58
2023/03/29 13:33:04;;;;;;;;;;;17.80;99.90;;;;;;5077846;28;19959;-58
2023/03/29 13:35:30;;;;;;;;;;;17.80;99.90;;;;;;5078141;28;19919;-58
2023/03/29 13:37:59;;;;;;;;;;;17.80;99.90;;;;;;5078220;28;20281;-58
2023/03/29 13:40:33;;;;;;;;;;;17.80;99.90;;;;;;5078171;28;19912;-58
2023/03/29 13:43:07;;;;;;;;;;;17.60;99.90;;;;;;5078082;28;19922;-58
2023/03/29 13:45:32;;;;;;;;;;;17.30;99.90;;;;;;5078013;28;19923;-58
2023/03/29 13:48:24;;;;;;;;;;;17.40;99.90;;;;;;5078017;28;19912;-58
2023/03/29 13:50:55;;;;;;;;;;;17.40;99.90;;;;;;5074907;28;19913;-58
2023/03/29 13:53:27;;;;;;;;;;;17.20;99.90;;;;;;5077962;28;19916;-58
2023/03/29 13:55:53;;;;;;;;;;;17.30;99.90;;;;;;5078055;28;19912;-58
2023/03/29 13:58:36;;;;;;;;;;;17.40;99.90;;;;;;5059906;28;19972;-58
2023/03/29 14:01:21;;;;;;;;;;;17.70;99.90;;;;;;5077804;28;19951;-58
2023/03/29 14:03:48;;;;;;;;;;;17.90;99.90;;;;;;5077722;28;20394;-58
2023/03/29 14:06:20;;;;;;;;;;;17.40;99.90;;;;;;5077557;28;19942;-58
2023/03/29 14:08:47;;;;;;;;;;;17.00;99.90;;;;;;5077284;28;19917;-58
2023/03/29 14:11:20;;;;;;;;;;;17.10;99.90;;;;;;5077670;28;20676;-58
2023/03/29 14:13:46;;;;;;;;;;;17.20;99.90;;;;;;5059564;28;20406;-58
2023/03/29 14:16:12;;;;;;;;;;;16.80;99.90;;;;;;5077667;28;19912;-58
2023/03/29 14:18:39;;;;;;;;;;;16.40;99.90;;;;;;5077538;28;19916;-58
2023/03/29 14:21:05;;;;;;;;;;;16.10;99.90;;;;;;5076752;28;19919;-58
2023/03/29 14:23:32;;;;;;;;;;;16.00;99.90;;;;;;5077261;28;19958;-58
2023/03/29 14:26:07;;;;;;;;;;;15.90;99.90;;;;;;5077286;28;19916;-58
2023/03/29 14:28:33;;;;;;;;;;;15.80;99.90;;;;;;5077423;28;19919;-58
2023/03/29 14:30:59;;;;;;;;;;;15.80;99.90;;;;;;5077276;28;19916;-58
2023/03/29 14:33:26;;;;;;;;;;;15.60;99.90;;;;;;5077165;28;19912;-58
2023/03/29 14:35:53;;;;;;;;;;;15.60;99.90;;;;;;5077221;28;19970;-58
2023/03/29 14:38:21;;;;;;;;;;;15.60;99.90;;;;;;5076909;28;19918;-58
2023/03/29 14:40:46;;;;;;;;;;;15.50;99.90;;;;;;5077781;28;20002;-58
2023/03/29 14:43:16;;;;;;;;;;;15.40;99.90;;;;;;5077700;28;19916;-58
2023/03/29 14:45:42;;;;;;;;;;;15.40;99.90;;;;;;5077890;28;19947;-58
2023/03/29 14:48:11;;;;;;;;;;;15.40;99.90;;;;;;5077845;28;19913;-58
2023/03/29 14:50:36;;;;;;;;;;;15.30;99.90;;;;;;5077749;28;19916;-58
2023/03/29 14:53:03;;;;;;;;;;;15.30;99.90;;;;;;5076958;28;19924;-58
2023/03/29 14:55:30;;;;;;;;;;;15.20;99.90;;;;;;5076862;28;20285;-58
2023/03/29 14:57:57;;;;;;;;;;;15.20;99.90;;;;;;5076732;28;20004;-58
2023/03/29 15:00:28;;;;;;;;;;;15.10;99.90;;;;;;5076926;28;19912;-58
2023/03/29 15:02:58;;;;;;;;;;;14.90;99.90;;;;;;5076736;28;19952;-58